createdAt,value
2023-01-19T00:00:28.569Z,95567.41
2023-01-19T00:02:33.483Z,95560.34
2023-01-19T00:04:41.031Z,95564.78
2023-01-19T00:06:45.830Z,95561.38
2023-01-19T00:08:50.580Z,95562.94
2023-01-19T00:10:55.395Z,95558.75
2023-01-19T00:13:00.426Z,95574.97
2023-01-19T00:15:05.729Z,95582.00
2023-01-19T00:17:10.546Z,95568.91
2023-01-19T00:19:15.499Z,95591.69
2023-01-19T00:21:24.809Z,95597.66
2023-01-19T00:23:29.695Z,95605.50
2023-01-19T00:25:34.708Z,95603.97
2023-01-19T00:27:39.586Z,95610.72
2023-01-19T00:29:44.540Z,95608.38
2023-01-19T00:31:49.390Z,95614.66
2023-01-19T00:33:54.363Z,95609.91
2023-01-19T00:35:59.188Z,95608.09
2023-01-19T00:38:06.755Z,95609.91
2023-01-19T00:40:13.461Z,95612.78
2023-01-19T00:42:30.720Z,95617.25
2023-01-19T00:44:35.730Z,95617.50
2023-01-19T00:46:40.730Z,95617.22
2023-01-19T00:48:45.536Z,95615.69
2023-01-19T00:50:51.392Z,95621.41
2023-01-19T00:52:57.879Z,95630.03
2023-01-19T00:55:05.595Z,95620.38
2023-01-19T00:57:10.416Z,95633.69
2023-01-19T00:59:15.367Z,95640.47
2023-01-19T01:01:20.264Z,95622.19
2023-01-19T01:03:44.905Z,95637.59
2023-01-19T01:05:49.800Z,95643.59
2023-01-19T01:07:54.668Z,95645.44
2023-01-19T01:09:59.526Z,95641.00
2023-01-19T01:12:07.214Z,95653.53
2023-01-19T01:14:13.187Z,95653.53
2023-01-19T01:16:18.257Z,95643.88
2023-01-19T01:18:23.953Z,95655.38
2023-01-19T01:20:31.256Z,95652.75
2023-01-19T01:22:36.061Z,95662.41
2023-01-19T01:24:41.040Z,95668.69
2023-01-19T01:26:46.143Z,95667.13
2023-01-19T01:28:53.525Z,95664.50
2023-01-19T01:30:59.388Z,95661.34
2023-01-19T01:33:04.297Z,95668.91
2023-01-19T01:35:11.749Z,95665.03
2023-01-19T01:37:16.563Z,95667.59
2023-01-19T01:39:22.112Z,95679.63
2023-01-19T01:41:27.444Z,95672.06
2023-01-19T01:43:50.381Z,95673.63
2023-01-19T01:45:57.927Z,95657.44
2023-01-19T01:48:08.845Z,95664.47
2023-01-19T01:50:18.725Z,95666.31
2023-01-19T01:52:25.782Z,95666.84
2023-01-19T01:54:34.543Z,95660.31
2023-01-19T01:56:41.754Z,95677.53
2023-01-19T01:58:47.281Z,95680.41
2023-01-19T02:01:04.790Z,95681.97
2023-01-19T02:03:12.253Z,95677.03
2023-01-19T02:05:22.528Z,95681.19
2023-01-19T02:07:48.691Z,95685.38
2023-01-19T02:10:06.913Z,95686.66
2023-01-19T02:12:24.145Z,95680.66
2023-01-19T02:14:29.093Z,95680.94
2023-01-19T02:16:34.885Z,95687.44
2023-01-19T02:18:43.401Z,95689.03
2023-01-19T02:20:56.498Z,95688.22
2023-01-19T02:23:05.691Z,95686.16
2023-01-19T02:25:13.245Z,95678.56
2023-01-19T02:27:18.807Z,95690.31
2023-01-19T02:29:25.918Z,95683.78
2023-01-19T02:31:32.892Z,95690.56
2023-01-19T02:33:37.943Z,95698.41
2023-01-19T02:35:43.957Z,95700.25
2023-01-19T02:37:50.371Z,95694.72
2023-01-19T02:39:57.932Z,95693.44
2023-01-19T02:42:09.378Z,95695.28
2023-01-19T02:44:15.585Z,95684.81
2023-01-19T02:46:20.344Z,95707.28
2023-01-19T02:48:25.250Z,95697.09
2023-01-19T02:50:41.939Z,95699.47
2023-01-19T02:52:46.787Z,95706.75
2023-01-19T02:55:04.053Z,95708.03
2023-01-19T02:57:29.460Z,95717.44
2023-01-19T02:59:52.279Z,95715.09
2023-01-19T03:02:13.373Z,95714.56
2023-01-19T03:04:27.632Z,95716.38
2023-01-19T03:06:45.263Z,95719.81
2023-01-19T03:08:56.043Z,95715.06
2023-01-19T03:11:06.079Z,95718.47
2023-01-19T03:13:18.559Z,95716.66
2023-01-19T03:15:27.996Z,95714.03
2023-01-19T03:17:35.479Z,95711.16
2023-01-19T03:19:44.280Z,95710.91
2023-01-19T03:21:52.275Z,95713.53
2023-01-19T03:24:01.983Z,95716.13
2023-01-19T03:26:09.798Z,95711.16
2023-01-19T03:28:20.730Z,95717.41
2023-01-19T03:30:29.629Z,95693.38
2023-01-19T03:32:39.155Z,95690.00
2023-01-19T03:34:46.029Z,95699.91
2023-01-19T03:36:54.925Z,95703.84
2023-01-19T03:39:02.596Z,95693.63
2023-01-19T03:41:12.678Z,95692.88
2023-01-19T03:43:22.461Z,95707.47
2023-01-19T03:45:27.959Z,95717.94
2023-01-19T03:47:33.589Z,95718.97
2023-01-19T03:49:39.508Z,95715.56
2023-01-19T03:51:44.853Z,95718.19
2023-01-19T03:53:50.180Z,95718.44
2023-01-19T03:55:55.673Z,95715.03
2023-01-19T03:58:00.438Z,95717.63
2023-01-19T04:00:09.139Z,95712.41
2023-01-19T04:02:16.941Z,95715.28
2023-01-19T04:04:21.768Z,95715.28
2023-01-19T04:06:27.069Z,95715.53
2023-01-19T04:08:32.629Z,95712.41
2023-01-19T04:10:37.569Z,95718.97
2023-01-19T04:12:42.854Z,95721.03
2023-01-19T04:14:47.678Z,95720.50
2023-01-19T04:16:55.069Z,95722.34
2023-01-19T04:18:59.988Z,95726.78
2023-01-19T04:21:05.382Z,95723.38
2023-01-19T04:23:10.207Z,95713.44
2023-01-19T04:25:14.992Z,95726.78
2023-01-19T04:27:19.820Z,95717.13
2023-01-19T04:29:24.678Z,95726.78
2023-01-19T04:31:29.699Z,95720.50
2023-01-19T04:33:37.256Z,95715.53
2023-01-19T04:35:42.546Z,95711.38
2023-01-19T04:37:47.819Z,95711.91
2023-01-19T04:39:52.929Z,95722.34
2023-01-19T04:41:57.742Z,95717.38
2023-01-19T04:44:02.627Z,95718.97
2023-01-19T04:46:08.036Z,95705.09
2023-01-19T04:48:12.907Z,95706.66
2023-01-19T04:50:20.503Z,95711.59
2023-01-19T04:52:25.774Z,95719.44
2023-01-19T04:54:30.683Z,95715.00
2023-01-19T04:56:35.891Z,95725.69
2023-01-19T04:58:40.874Z,95729.34
2023-01-19T05:00:46.449Z,95736.38
2023-01-19T05:02:51.298Z,95732.44
2023-01-19T05:04:56.172Z,95737.41
2023-01-19T05:07:03.506Z,95749.63
2023-01-19T05:09:09.246Z,95748.81
2023-01-19T05:11:14.047Z,95751.16
2023-01-19T05:13:20.365Z,95750.59
2023-01-19T05:15:25.638Z,95754.78
2023-01-19T05:17:31.035Z,95753.44
2023-01-19T05:19:35.789Z,95763.59
2023-01-19T05:21:40.751Z,95755.44
2023-01-19T05:23:48.284Z,95761.72
2023-01-19T05:25:53.173Z,95765.38
2023-01-19T05:27:57.955Z,95769.28
2023-01-19T05:30:04.729Z,95762.75
2023-01-19T05:32:09.472Z,95766.13
2023-01-19T05:34:14.881Z,95765.59
2023-01-19T05:36:19.678Z,95771.06
2023-01-19T05:38:34.565Z,95768.72
2023-01-19T05:40:42.585Z,95771.31
2023-01-19T05:42:47.372Z,95774.44
2023-01-19T05:44:52.536Z,95773.38
2023-01-19T05:46:57.474Z,95774.94
2023-01-19T05:49:05.295Z,95779.41
2023-01-19T05:51:10.935Z,95772.84
2023-01-19T05:53:15.961Z,95781.94
2023-01-19T05:55:20.792Z,95778.00
2023-01-19T05:57:28.186Z,95795.78
2023-01-19T05:59:33.102Z,95796.25
2023-01-19T06:01:39.906Z,95792.09
2023-01-19T06:03:45.085Z,95797.00
2023-01-19T06:05:49.990Z,95798.06
2023-01-19T06:07:54.952Z,95809.28
2023-01-19T06:09:59.700Z,95805.09
2023-01-19T06:12:04.650Z,95811.31
2023-01-19T06:14:12.525Z,95813.16
2023-01-19T06:16:17.422Z,95813.94
2023-01-19T06:18:22.223Z,95814.19
2023-01-19T06:20:27.006Z,95813.41
2023-01-19T06:22:31.749Z,95823.81
2023-01-19T06:24:37.056Z,95831.66
2023-01-19T06:26:43.351Z,95826.69
2023-01-19T06:28:48.726Z,95829.78
2023-01-19T06:30:58.266Z,95826.59
2023-01-19T06:33:03.331Z,95835.50
2023-01-19T06:35:08.996Z,95831.56
2023-01-19T06:37:14.035Z,95837.00
2023-01-19T06:39:18.959Z,95840.41
2023-01-19T06:41:23.775Z,95844.59
2023-01-19T06:43:29.418Z,95840.66
2023-01-19T06:45:34.342Z,95846.16
2023-01-19T06:47:41.718Z,95852.94
2023-01-19T06:49:46.743Z,95846.41
2023-01-19T06:51:51.526Z,95859.72
2023-01-19T06:53:56.347Z,95858.69
2023-01-19T06:56:05.015Z,95852.47
2023-01-19T06:58:10.150Z,95857.69
2023-01-19T07:00:16.866Z,95859.22
2023-01-19T07:02:27.823Z,95863.41
2023-01-19T07:04:36.871Z,95857.19
2023-01-19T07:06:41.771Z,95864.75
2023-01-19T07:08:46.544Z,95862.91
2023-01-19T07:11:25.493Z,95868.91
2023-01-19T07:13:17.680Z,95862.69
2023-01-19T07:15:23.193Z,95873.66
2023-01-19T07:17:27.972Z,95865.84
2023-01-19T07:19:35.895Z,95871.56
2023-01-19T07:21:40.738Z,95868.19
2023-01-19T07:23:45.708Z,95875.78
2023-01-19T07:25:50.474Z,95872.34
2023-01-19T07:27:56.069Z,95877.03
2023-01-19T07:30:01.234Z,95867.59
2023-01-19T07:32:06.319Z,95873.06
2023-01-19T07:34:12.539Z,95875.91
2023-01-19T07:36:20.122Z,95873.25
2023-01-19T07:38:24.971Z,95874.53
2023-01-19T07:40:30.364Z,95874.25
2023-01-19T07:42:35.276Z,95879.72
2023-01-19T07:44:40.270Z,95876.88
2023-01-19T07:46:45.597Z,95881.84
2023-01-19T07:48:50.609Z,95889.13
2023-01-19T07:50:55.424Z,95891.97
2023-01-19T07:53:08.625Z,95892.22
2023-01-19T07:55:13.573Z,95899.28
2023-01-19T07:57:19.376Z,95898.22
2023-01-19T07:59:24.504Z,95897.44
2023-01-19T08:01:29.725Z,95903.44
2023-01-19T08:03:34.583Z,95906.03
2023-01-19T08:05:40.053Z,95917.03
2023-01-19T08:07:45.382Z,95915.44
2023-01-19T08:09:53.162Z,95921.91
2023-01-19T08:11:57.951Z,95916.66
2023-01-19T08:14:03.216Z,95917.97
2023-01-19T08:16:08.899Z,95917.97
2023-01-19T08:18:15.840Z,95924.78
2023-01-19T08:20:21.096Z,95924.78
2023-01-19T08:22:25.971Z,95925.78
2023-01-19T08:24:31.851Z,95928.97
2023-01-19T08:26:39.501Z,95930.53
2023-01-19T08:28:44.247Z,95931.56
2023-01-19T08:30:54.290Z,95932.34
2023-01-19T08:33:04.341Z,95937.56
2023-01-19T08:35:10.861Z,95932.06
2023-01-19T08:37:15.704Z,95936.78
2023-01-19T08:39:20.556Z,95930.75
2023-01-19T08:41:25.377Z,95941.69
2023-01-19T08:43:34.676Z,95941.91
2023-01-19T08:45:46.676Z,95941.63
2023-01-19T08:47:51.543Z,95939.28
2023-01-19T08:49:56.323Z,95939.28
2023-01-19T08:52:01.155Z,95945.81
2023-01-19T08:54:05.908Z,95948.44
2023-01-19T08:56:12.730Z,95946.28
2023-01-19T08:58:17.545Z,95950.19
2023-01-19T09:00:25.495Z,95956.94
2023-01-19T09:02:30.668Z,95953.84
2023-01-19T09:04:36.535Z,95951.81
2023-01-19T09:06:41.300Z,95954.16
2023-01-19T09:08:46.404Z,95956.25
2023-01-19T09:10:52.821Z,95957.56
2023-01-19T09:12:57.589Z,95957.31
2023-01-19T09:15:02.405Z,95963.31
2023-01-19T09:17:09.856Z,95961.00
2023-01-19T09:19:14.597Z,95969.16
2023-01-19T09:21:19.452Z,95967.56
2023-01-19T09:23:24.367Z,95962.88
2023-01-19T09:25:29.412Z,95959.00
2023-01-19T09:27:34.235Z,95965.56
2023-01-19T09:29:39.068Z,95963.25
2023-01-19T09:31:45.818Z,95966.16
2023-01-19T09:33:53.526Z,95970.09
2023-01-19T09:35:58.344Z,95971.13
2023-01-19T09:38:03.989Z,95974.81
2023-01-19T09:40:13.073Z,95977.97
2023-01-19T09:42:25.817Z,95970.16
2023-01-19T09:44:35.026Z,95972.00
2023-01-19T09:46:42.963Z,95971.75
2023-01-19T09:48:50.438Z,95973.34
2023-01-19T09:51:02.167Z,95976.47
2023-01-19T09:53:14.479Z,95967.88
2023-01-19T09:55:25.549Z,95974.13
2023-01-19T09:57:32.319Z,95974.13
2023-01-19T09:59:39.021Z,95968.13
2023-01-19T10:01:55.618Z,95969.72
2023-01-19T10:04:14.154Z,95961.06
2023-01-19T10:06:21.913Z,95970.22
2023-01-19T10:08:35.125Z,95969.41
2023-01-19T10:10:43.485Z,95978.28
2023-01-19T10:12:59.196Z,95975.66
2023-01-19T10:15:17.488Z,95973.59
2023-01-19T10:17:35.965Z,95968.38
2023-01-19T10:19:46.613Z,95974.13
2023-01-19T10:21:56.277Z,95972.59
2023-01-19T10:24:06.188Z,95968.25
2023-01-19T10:26:18.477Z,95971.44
2023-01-19T10:28:28.101Z,95970.69
2023-01-19T10:30:33.138Z,95968.44
2023-01-19T10:32:39.637Z,95961.69
2023-01-19T10:34:44.481Z,95966.66
2023-01-19T10:36:52.468Z,95968.00
2023-01-19T10:39:01.504Z,95975.06
2023-01-19T10:41:10.617Z,95967.53
2023-01-19T10:43:44.444Z,95967.56
2023-01-19T10:45:53.592Z,95966.56
2023-01-19T10:48:03.050Z,95974.66
2023-01-19T10:50:26.983Z,95966.56
2023-01-19T10:52:35.873Z,95957.63
2023-01-19T10:54:48.503Z,95976.75
2023-01-19T10:56:56.339Z,95963.34
2023-01-19T10:59:03.488Z,95959.41
2023-01-19T11:01:17.429Z,95964.38
2023-01-19T11:03:27.083Z,95967.50
2023-01-19T11:05:33.712Z,95963.78
2023-01-19T11:07:38.977Z,95966.91
2023-01-19T11:09:46.348Z,95955.63
2023-01-19T11:11:53.083Z,95953.00
2023-01-19T11:14:12.724Z,95963.22
2023-01-19T11:16:26.422Z,95965.81
2023-01-19T11:18:34.567Z,95957.75
2023-01-19T11:20:50.998Z,95952.28
2023-01-19T11:23:08.048Z,95957.81
2023-01-19T11:25:26.030Z,95948.91
2023-01-19T11:27:31.302Z,95944.50
2023-01-19T11:29:36.319Z,95948.69
2023-01-19T11:31:41.236Z,95944.78
2023-01-19T12:00:25.929Z,95925.44
2023-01-19T12:02:37.630Z,95920.50
2023-01-19T12:04:44.642Z,95921.81
2023-01-19T12:06:53.506Z,95898.84
2023-01-19T12:09:01.468Z,95914.56
2023-01-19T12:11:08.592Z,95913.28
2023-01-19T12:13:23.294Z,95907.56
2023-01-19T12:15:37.888Z,95902.06
2023-01-19T12:17:49.171Z,95903.41
2023-01-19T12:19:59.142Z,95907.31
2023-01-19T12:22:04.739Z,95897.38
2023-01-19T12:24:17.029Z,95896.34
2023-01-19T12:26:40.577Z,95896.88
2023-01-19T12:28:47.271Z,95902.09
2023-01-19T12:30:55.783Z,95899.47
2023-01-19T12:33:25.368Z,95892.44
2023-01-19T12:35:58.168Z,95894.25
2023-01-19T12:38:03.010Z,95895.59
2023-01-19T12:40:23.062Z,95891.41
2023-01-19T12:42:29.309Z,95895.59
2023-01-19T12:44:36.600Z,95901.63
2023-01-19T12:46:46.127Z,95896.41
2023-01-19T12:48:51.112Z,95895.38
2023-01-19T12:50:56.079Z,95893.78
2023-01-19T12:53:03.579Z,95892.22
2023-01-19T12:55:22.995Z,95894.56
2023-01-19T12:57:33.158Z,95904.50
2023-01-19T12:59:40.207Z,95898.00
2023-01-19T13:01:47.717Z,95889.38
2023-01-19T13:04:09.233Z,95893.59
2023-01-19T13:06:15.823Z,95896.50
2023-01-19T13:08:31.254Z,95892.59
2023-01-19T13:10:58.503Z,95897.81
2023-01-19T13:13:20.316Z,95895.19
2023-01-19T13:15:37.830Z,95896.78
2023-01-19T13:17:52.575Z,95897.56
2023-01-19T13:20:04.198Z,95899.66
2023-01-19T13:22:38.791Z,95905.16
2023-01-19T13:25:08.299Z,95901.28
2023-01-19T13:27:15.225Z,95899.19
2023-01-19T13:29:24.584Z,95895.28
2023-01-19T13:31:36.588Z,95899.22
2023-01-19T13:33:53.741Z,95902.34
2023-01-19T13:36:00.441Z,95899.22
2023-01-19T13:38:05.895Z,95895.53
2023-01-19T13:40:24.293Z,95898.69
2023-01-19T13:42:33.913Z,95902.84
2023-01-19T13:44:47.135Z,95905.22
2023-01-19T13:46:52.618Z,95903.88
2023-01-19T13:49:04.410Z,95901.78
2023-01-19T13:51:20.041Z,95900.75
2023-01-19T13:53:24.768Z,95898.16
2023-01-19T13:55:31.213Z,95897.59
2023-01-19T13:57:41.754Z,95886.09
2023-01-19T13:59:46.811Z,95893.16
2023-01-19T14:01:54.370Z,95898.38
2023-01-19T14:04:02.186Z,95899.41
2023-01-19T14:06:07.239Z,95903.06
2023-01-19T14:08:18.299Z,95893.66
2023-01-19T14:10:23.490Z,95885.81
2023-01-19T14:12:28.343Z,95899.13
2023-01-19T14:14:33.243Z,95903.59
2023-01-19T14:16:38.643Z,95902.00
2023-01-19T14:18:43.422Z,95902.50
2023-01-19T14:20:58.990Z,95900.16
2023-01-19T14:23:03.857Z,95903.50
2023-01-19T14:25:24.752Z,95909.00
2023-01-19T14:27:29.558Z,95897.97
2023-01-19T14:29:35.752Z,95898.75
2023-01-19T14:31:47.403Z,95909.97
2023-01-19T14:33:54.411Z,95901.88
2023-01-19T14:36:11.974Z,95904.50
2023-01-19T14:38:17.332Z,95904.75
2023-01-19T14:40:24.721Z,95913.41
2023-01-19T14:42:33.063Z,95903.97
2023-01-19T14:44:41.803Z,95912.59
2023-01-19T14:46:49.250Z,95912.06
2023-01-19T14:48:56.482Z,95909.97
2023-01-19T14:51:08.151Z,95910.22
2023-01-19T14:53:21.369Z,95918.56
2023-01-19T14:55:31.580Z,95913.56
2023-01-19T14:57:36.938Z,95915.38
2023-01-19T14:59:42.165Z,95919.28
2023-01-19T15:01:47.047Z,95916.16
2023-01-19T15:03:51.988Z,95910.13
2023-01-19T15:05:59.935Z,95911.16
2023-01-19T15:08:08.500Z,95914.84
2023-01-19T15:10:20.734Z,95920.88
2023-01-19T15:12:30.598Z,95916.91
2023-01-19T15:14:35.451Z,95921.59
2023-01-19T15:16:40.653Z,95925.78
2023-01-19T15:18:45.615Z,95924.47
2023-01-19T15:20:50.626Z,95937.50
2023-01-19T15:22:55.395Z,95933.59
2023-01-19T15:25:03.399Z,95940.38
2023-01-19T15:27:08.237Z,95929.41
2023-01-19T15:29:19.756Z,95936.97
2023-01-19T15:31:26.558Z,95923.09
2023-01-19T15:33:33.207Z,95934.56
2023-01-19T15:35:38.077Z,95937.44
2023-01-19T15:37:42.921Z,95926.69
2023-01-19T15:39:47.703Z,95935.34
2023-01-19T15:41:56.244Z,95942.38
2023-01-19T15:44:01.351Z,95938.75
2023-01-19T15:46:06.475Z,95937.41
2023-01-19T15:48:13.349Z,95940.56
2023-01-19T15:50:20.228Z,95947.34
2023-01-19T15:52:25.088Z,95937.13
2023-01-19T15:54:30.123Z,95940.56
2023-01-19T15:56:34.992Z,95939.78
2023-01-19T15:58:42.927Z,95934.25
2023-01-19T16:00:47.718Z,95945.78
2023-01-19T16:02:53.017Z,95944.75
2023-01-19T16:04:58.068Z,95944.75
2023-01-19T16:07:03.236Z,95943.16
2023-01-19T16:09:12.330Z,95949.97
2023-01-19T16:11:18.770Z,95938.19
2023-01-19T16:13:24.002Z,95947.09
2023-01-19T16:15:31.488Z,95951.00
2023-01-19T16:17:36.580Z,95945.78
2023-01-19T16:19:41.557Z,95944.75
2023-01-19T16:21:46.721Z,95945.75
2023-01-19T16:23:51.585Z,95954.09
2023-01-19T16:26:00.127Z,95959.06
2023-01-19T16:28:05.052Z,95953.84
2023-01-19T16:30:13.417Z,95957.75
2023-01-19T16:32:21.840Z,95961.41
2023-01-19T16:34:27.100Z,95965.81
2023-01-19T16:42:25.985Z,95960.84
2023-01-19T16:44:31.359Z,95959.75
2023-01-19T16:46:38.555Z,95960.00
2023-01-19T16:48:45.918Z,95957.13
2023-01-19T16:51:01.808Z,95959.47
2023-01-19T16:53:06.741Z,95953.13
2023-01-19T16:55:12.816Z,95950.75
2023-01-19T16:57:17.707Z,95950.75
2023-01-19T16:59:24.696Z,95960.66
2023-01-19T17:01:31.614Z,95947.88
2023-01-19T17:03:36.632Z,95950.22
2023-01-19T17:05:47.157Z,95955.97
2023-01-19T17:07:52.075Z,95955.97
2023-01-19T17:09:58.027Z,95955.72
2023-01-19T17:12:02.953Z,95963.06
2023-01-19T17:14:11.136Z,95962.28
2023-01-19T17:16:19.265Z,95964.34
2023-01-19T17:18:24.091Z,95966.97
2023-01-19T17:20:29.383Z,95959.84
2023-01-19T17:22:36.827Z,95974.78
2023-01-19T17:24:46.102Z,95957.16
2023-01-19T17:26:51.393Z,95966.38
2023-01-19T17:29:02.722Z,95970.03
2023-01-19T17:31:11.342Z,95967.19
2023-01-19T17:33:19.258Z,95975.25
2023-01-19T17:35:24.243Z,95976.06
2023-01-19T17:39:50.775Z,95969.00
2023-01-19T17:41:55.804Z,95958.81
2023-01-19T17:44:02.891Z,95969.25
2023-01-19T17:52:45.303Z,95973.66
2023-01-19T17:54:52.806Z,95973.91
2023-01-19T17:56:57.726Z,95972.56
2023-01-19T17:59:02.668Z,95976.50
2023-01-19T18:01:16.056Z,95955.78
2023-01-19T18:03:20.970Z,95976.75
2023-01-19T18:05:26.499Z,95977.84
2023-01-19T18:07:32.497Z,95965.47
2023-01-19T18:09:37.467Z,95979.94
2023-01-19T18:11:45.450Z,95979.44
2023-01-19T18:13:51.950Z,95982.63
2023-01-19T18:16:02.734Z,95978.44
2023-01-19T18:18:07.658Z,95976.81
2023-01-19T18:20:14.720Z,95973.66
2023-01-19T18:22:20.419Z,95983.09
2023-01-19T18:24:25.749Z,95976.81
2023-01-19T18:26:31.348Z,95980.47
2023-01-19T18:28:39.452Z,95972.38
2023-01-19T18:30:44.514Z,95976.56
2023-01-19T18:32:51.625Z,95978.13
2023-01-19T18:34:57.793Z,95978.63
2023-01-19T18:37:02.703Z,95972.81
2023-01-19T18:39:09.490Z,95984.88
2023-01-19T18:41:15.838Z,95979.88
2023-01-19T18:43:20.716Z,95972.81
2023-01-19T18:45:28.243Z,95984.28
2023-01-19T18:47:35.660Z,95975.91
2023-01-19T18:49:41.115Z,95968.31
2023-01-19T18:51:46.413Z,95971.69
2023-01-19T19:12:03.287Z,95979.75
2023-01-19T19:16:36.154Z,95975.56
2023-01-19T19:18:42.707Z,95980.28
2023-01-19T19:20:47.623Z,95981.88
2023-01-19T19:22:53.071Z,95973.16
2023-01-19T19:24:58.045Z,95989.94
2023-01-19T19:27:14.068Z,95982.66
2023-01-19T19:29:20.350Z,95977.44
2023-01-19T19:31:27.813Z,95981.63
2023-01-19T19:33:32.847Z,95982.97
2023-01-19T19:38:48.651Z,95986.09
2023-01-19T19:40:54.600Z,95990.56
2023-01-19T19:43:02.071Z,95987.72
2023-01-19T19:45:07.640Z,95993.25
2023-01-19T19:47:12.802Z,95991.16
2023-01-19T19:49:21.551Z,95984.38
2023-01-19T19:51:28.385Z,95990.97
2023-01-19T19:53:33.389Z,95992.31
2023-01-19T19:55:38.699Z,95994.09
2023-01-19T19:57:43.647Z,95998.31
2023-01-19T19:59:51.090Z,95989.19
2023-01-19T20:01:56.561Z,95987.38
2023-01-19T20:04:06.323Z,95990.53
2023-01-19T20:06:12.993Z,95996.53
2023-01-19T20:08:17.859Z,95991.31
2023-01-19T20:10:22.993Z,96005.19
2023-01-19T20:12:28.203Z,96002.84
2023-01-19T20:14:33.196Z,95996.53
2023-01-19T20:16:41.378Z,96002.59
2023-01-19T20:18:50.983Z,96005.19
2023-01-19T20:20:56.064Z,95988.97
2023-01-19T20:23:01.392Z,95988.47
2023-01-19T20:25:06.649Z,95993.69
2023-01-19T20:27:11.465Z,95992.16
2023-01-19T20:29:16.459Z,95991.09
2023-01-19T20:31:23.857Z,95991.91
2023-01-19T20:33:31.399Z,95990.03
2023-01-19T20:35:36.365Z,95998.63
2023-01-19T20:37:41.621Z,96004.09
2023-01-19T20:39:46.514Z,95994.94
2023-01-19T20:41:52.641Z,95998.38
2023-01-19T20:43:57.824Z,95999.38
2023-01-19T20:46:03.067Z,95995.19
2023-01-19T20:48:08.357Z,95996.00
2023-01-19T20:50:16.304Z,95997.53
2023-01-19T20:52:21.720Z,95992.56
2023-01-19T20:54:30.309Z,96003.03
2023-01-19T20:56:35.119Z,95995.94
2023-01-19T20:58:40.671Z,95998.38
2023-01-19T21:00:45.693Z,96000.97
2023-01-19T21:02:50.907Z,96000.16
2023-01-19T21:04:56.254Z,95998.06
2023-01-19T21:07:03.834Z,95989.44
2023-01-19T21:09:09.100Z,95989.72
2023-01-19T21:11:14.709Z,95988.44
2023-01-19T21:13:19.648Z,95981.66
2023-01-19T21:15:24.690Z,95980.56
2023-01-19T21:17:29.906Z,95989.22
2023-01-19T21:19:34.846Z,96000.97
2023-01-19T21:21:39.780Z,95996.53
2023-01-19T21:23:47.339Z,95993.41
2023-01-19T21:25:52.583Z,95986.84
2023-01-19T21:27:57.645Z,95994.34
2023-01-19T21:30:02.587Z,95990.72
2023-01-19T21:32:07.978Z,95984.16
2023-01-19T21:34:14.182Z,95992.25
2023-01-19T21:36:19.191Z,95992.00
2023-01-19T21:38:26.829Z,95983.41
2023-01-19T21:40:34.577Z,95989.94
2023-01-19T21:42:40.512Z,95993.88
2023-01-19T21:44:45.387Z,95991.25
2023-01-19T21:46:50.185Z,95989.94
2023-01-19T21:48:55.357Z,95988.13
2023-01-19T21:51:00.803Z,95987.84
2023-01-19T21:53:07.862Z,95981.06
2023-01-19T21:55:13.392Z,95989.69
2023-01-19T21:57:21.099Z,95989.69
2023-01-19T21:59:25.957Z,95995.16
2023-01-19T22:01:31.437Z,95999.81
2023-01-19T22:03:36.529Z,96001.94
2023-01-19T22:05:41.508Z,95997.53
2023-01-19T22:07:46.294Z,96013.72
2023-01-19T22:09:51.219Z,96011.88
2023-01-19T22:11:55.963Z,96016.81
2023-01-19T22:14:03.428Z,96015.53
2023-01-19T22:16:11.609Z,96007.97
2023-01-19T22:18:16.689Z,96013.97
2023-01-19T22:20:21.603Z,96025.41
2023-01-19T22:22:26.415Z,96023.56
2023-01-19T22:24:31.182Z,96031.69
2023-01-19T22:26:37.122Z,96027.25
2023-01-19T22:28:42.183Z,96029.09
2023-01-19T22:30:49.769Z,96030.88
2023-01-19T22:32:55.469Z,96028.53
2023-01-19T22:35:00.280Z,96036.34
2023-01-19T22:37:06.453Z,96030.59
2023-01-19T22:39:12.978Z,96036.84
2023-01-19T22:41:19.225Z,96038.59
2023-01-19T22:43:24.248Z,96041.53
2023-01-19T22:45:29.099Z,96043.34
2023-01-19T22:47:36.474Z,96039.09
2023-01-19T22:49:41.261Z,96043.06
2023-01-19T22:51:46.736Z,96037.28
2023-01-19T22:53:51.836Z,96039.88
2023-01-19T22:55:56.681Z,96042.50
2023-01-19T22:58:01.535Z,96035.41
2023-01-19T23:00:08.911Z,96035.72
2023-01-19T23:02:13.697Z,96028.91
2023-01-19T23:04:21.666Z,96031.28
2023-01-19T23:06:28.160Z,96031.28
2023-01-19T23:08:33.115Z,96036.50
2023-01-19T23:10:41.103Z,96034.66
2023-01-19T23:12:46.751Z,96029.69
2023-01-19T23:14:51.534Z,96038.84
2023-01-19T23:16:56.485Z,96039.88
2023-01-19T23:19:01.417Z,96043.28
2023-01-19T23:21:10.652Z,96032.06
2023-01-19T23:23:15.377Z,96021.84
2023-01-19T23:25:20.165Z,96022.91
2023-01-19T23:27:25.121Z,96022.91
2023-01-19T23:29:29.889Z,96024.47
2023-01-19T23:31:36.642Z,96019.00
2023-01-19T23:33:41.654Z,96034.13
2023-01-19T23:35:46.434Z,96022.38
2023-01-19T23:37:53.891Z,96028.91
2023-01-19T23:39:58.658Z,96040.13
2023-01-19T23:42:03.722Z,96025.72
2023-01-19T23:44:08.775Z,96039.34
2023-01-19T23:46:14.971Z,96031.78
2023-01-19T23:48:19.740Z,96033.34
2023-01-19T23:50:24.574Z,96035.41
2023-01-19T23:52:29.355Z,96037.00
2023-01-19T23:54:36.883Z,96030.19
2023-01-19T23:56:42.791Z,96034.63
2023-01-19T23:58:48.932Z,96039.06
